Latest Coastal Weather Observations for Laverton

IDV60701

Issued at 7:11 am EST Friday 20 September 2019 (issued every 10 minutes, with the page automatically refreshed every 10 minutes)

About coastal observations | Map of coastal stations | Coastal observations for VIC | Marine services | Other Formats
Station Details ID: 087031 Name: LAVERTON RAAF Lat: -37.86 Lon: 144.76 Height: 20.1 m
Data from the previous 72 hours. | See also: Recent months at Laverton
Date/Time
EST
Wind Sea
Height
m
Swell Vis
km
Cloud Weather Temp
°C
Press
hPa
Rain since
9am
mm
Dir  Spd
kts
Gust
kts
Height
m
Period
s
Dir
20/07:00am N 15 31 - - - - 10 Clear - 18.6 1017.5 0.0
20/06:57am N 15 25 - - - - 10 Clear - 18.6 1017.4 0.0
20/06:30am NNE 13 22 - - - - 10 - - 18.6 1017.2 0.0
20/06:00am NNE 15 29 - - - - 10 Cloudy - 18.7 1016.2 0.0
20/05:30am N 17 27 - - - - 10 - - 18.9 1015.5 0.0
20/05:00am N 19 30 - - - - 10 - - 19.3 1014.8 0.0
20/04:30am N 20 31 - - - - 10 - - 19.5 1014.5 0.0
20/04:00am N 19 30 - - - - 10 - - 19.5 1014.3 0.0
20/03:30am N 21 33 - - - - 10 - - 19.7 1014.5 0.0
20/03:00am N 19 33 - - - - 10 Cloudy - 19.9 1014.8 0.0
20/02:30am N 21 31 - - - - 10 - - 20.2 1014.2 0.0
20/02:00am NNE 19 32 - - - - 10 - - 19.9 1014.3 0.0
20/01:30am N 18 29 - - - - 10 - - 20.1 1015.1 0.0
20/01:05am N 17 29 - - - - 10 - - 20.3 1015.3 0.0
20/01:00am N 18 27 - - - - 10 - - 20.2 1015.4 0.0
20/12:35am N 17 27 - - - - 10 - - 19.9 1015.1 0.0
20/12:30am N 18 27 - - - - 10 - - 20.1 1015.1 0.0
20/12:01am N 15 27 - - - - 10 - - 20.0 1015.3 0.0
20/12:00am N 14 24 - - - - 10 Mostly cloudy - 20.0 1015.4 0.0
 
Date/Time
EST
Wind Sea
Height
m
Swell Vis
km
Cloud Weather Temp
°C
Press
hPa
Rain since
9am
mm
Dir  Spd
kts
Gust
kts
Height
m
Period
s
Dir
19/11:30pm NNE 19 31 - - - - 10 - - 20.2 1015.2 0.0
19/11:00pm NNE 16 26 - - - - 10 - - 20.2 1015.6 0.0
19/10:55pm NNE 15 26 - - - - 10 - - 20.1 1015.6 0.0
19/10:30pm NNE 14 24 - - - - 10 - - 20.0 1015.8 0.0
19/10:00pm N 15 24 - - - - 10 - - 20.0 1015.7 0.0
19/09:33pm N 17 29 - - - - 10 - - 20.4 1015.4 0.0
19/09:30pm N 16 24 - - - - 10 - - 20.3 1015.3 0.0
19/09:20pm NNE 16 24 - - - - 10 - - 20.3 1015.5 0.0
19/09:00pm N 10 14 - - - - 10 Cloudy - 20.1 1015.9 0.0
19/08:30pm NNE 11 17 - - - - 10 - - 20.3 1015.5 0.0
19/08:00pm NNE 15 22 - - - - 10 - - 20.5 1014.9 0.0
19/07:30pm NNE 12 18 - - - - 10 - - 20.4 1015.2 0.0
19/07:00pm NNE 14 20 - - - - 10 - - 20.9 1015.5 0.0
19/06:30pm NNE 13 20 - - - - 10 - - 21.0 1015.7 0.0
19/06:03pm NNE 15 25 - - - - 10 - - 21.3 1015.8 0.0
19/06:00pm NNE 16 25 - - - - 10 Mostly clear - 21.3 1015.8 0.0
19/05:30pm NNE 17 28 - - - - 10 - - 21.7 1015.7 0.0
19/05:20pm NNE 20 30 - - - - 10 - - 21.9 1015.7 0.0
19/05:00pm N 18 25 - - - - 10 - - 22.1 1016.0 0.0
19/04:46pm NNE 15 26 - - - - 10 - - 22.1 1016.2 0.0
19/04:30pm N 16 25 - - - - 10 - - 22.6 1016.1 0.0
19/04:06pm NNE 17 27 - - - - 10 - - 21.9 1016.3 0.0
19/04:00pm NNE 19 28 - - - - 10 - - 22.3 1016.3 0.0
19/03:40pm N 17 30 - - - - 10 - - 22.8 1016.4 0.0
19/03:30pm NNE 18 27 - - - - 10 - - 22.6 1016.5 0.0
19/03:13pm N 16 26 - - - - 10 - - 23.1 1016.6 0.0
19/03:00pm NNE 19 27 - - - - 10 - - 22.7 1016.7 0.0
19/02:56pm NNE 17 27 - - - - 10 - - 22.8 1016.8 0.0
19/02:30pm NNE 18 25 - - - - 10 - - 22.7 1017.1 0.0
19/02:03pm NNE 16 28 - - - - 10 - - 23.1 1017.4 0.0
19/02:00pm N 17 25 - - - - 10 - - 23.1 1017.4 0.0
19/01:30pm NNE 17 27 - - - - 10 - - 22.6 1018.0 0.0
19/01:11pm NNE 16 27 - - - - 10 - - 22.5 1018.3 0.0
19/01:00pm NNE 17 26 - - - - 10 - - 21.9 1018.4 0.0
19/12:30pm NNE 17 24 - - - - 10 - - 21.8 1019.0 0.0
19/12:00pm N 16 23 - - - - 10 - - 21.2 1019.8 0.0
19/11:39am NNE 15 25 - - - - 10 - - 20.9 1020.1 0.0
19/11:30am NNE 17 24 - - - - 10 - - 20.1 1020.3 0.0
19/11:02am NNE 15 25 - - - - 10 - - 20.0 1020.7 0.0
19/11:00am NNE 16 25 - - - - 10 - - 20.0 1020.7 0.0
19/10:30am N 16 25 - - - - 10 - - 19.2 1021.1 0.0
19/10:00am N 17 27 - - - - 10 - - 18.4 1021.3 0.0
19/09:30am NNE 20 32 - - - - 10 - - 17.4 1021.6 0.0
19/09:09am NNE 15 25 - - - - 10 - - 17.1 1022.1 0.0
19/09:00am NE 11 17 - - - - 10 - - 16.5 1022.2 0.0
19/08:30am NE 10 15 - - - - 10 - - 14.8 1022.5 0.0
19/08:00am NE 10 15 - - - - 10 - - 13.5 1022.8 0.0
19/07:30am NNE 9 12 - - - - 10 - - 11.8 1023.0 0.0
19/07:00am NNE 5 7 - - - - 10 - - 9.7 1023.2 0.0
19/06:30am NNE 6 8 - - - - 10 - - 8.6 1023.1 0.0
19/06:00am NNE 8 9 - - - - 10 - - 8.7 1023.0 0.0
19/05:30am NNE 7 9 - - - - 10 - - 8.4 1022.7 0.0
19/05:00am NE 5 6 - - - - 10 - - 7.4 1022.5 0.0
19/04:30am NE 6 7 - - - - 10 - - 7.2 1022.5 0.0
19/04:00am NE 4 6 - - - - 10 - - 6.5 1022.4 0.0
19/03:30am NE 5 6 - - - - 10 - - 7.2 1022.5 0.0
19/03:00am NE 8 10 - - - - 10 - - 7.9 1022.8 0.0
19/02:30am NE 7 9 - - - - 10 - - 7.3 1023.1 0.0
19/02:00am NE 5 6 - - - - 10 - - 5.9 1023.5 0.0
19/01:30am NNW 5 6 - - - - 10 - - 5.6 1023.9 0.0
19/01:00am CALM 0 0 - - - - 10 - - 6.6 1024.5 0.0
19/12:30am CALM 0 0 - - - - 10 - - 7.0 1024.8 0.0
19/12:00am NNW 3 4 - - - - 10 - - 7.0 1024.7 0.0
 
Date/Time
EST
Wind Sea
Height
m
Swell Vis
km
Cloud Weather Temp
°C
Press
hPa
Rain since
9am
mm
Dir  Spd
kts
Gust
kts
Height
m
Period
s
Dir
18/11:30pm NNW 4 5 - - - - 10 - - 7.6 1025.0 0.0
18/11:00pm CALM 0 3 - - - - 10 - - 7.6 1025.1 0.0
18/10:30pm NW 5 6 - - - - 10 - - 8.4 1025.2 0.0
18/10:00pm NNW 6 7 - - - - 10 - - 8.8 1025.5 0.0
18/09:30pm E 4 5 - - - - 10 - - 10.0 1025.6 0.0
18/09:00pm E 4 5 - - - - 10 - - 10.6 1025.6 0.0
18/08:30pm ESE 5 6 - - - - 10 - - 11.3 1025.6 0.0
18/08:00pm E 4 6 - - - - 10 - - 11.4 1025.5 0.0
18/07:30pm ESE 3 5 - - - - 10 - - 11.9 1025.5 0.0
18/07:00pm E 5 6 - - - - 10 - - 12.0 1025.3 0.0
18/06:30pm E 5 5 - - - - 10 - - 12.6 1025.2 0.0
18/06:00pm ESE 4 5 - - - - 10 - - 13.2 1025.1 0.0
18/05:30pm ESE 5 7 - - - - 10 - - 14.0 1025.0 0.0
18/05:00pm ESE 6 7 - - - - 10 - - 14.4 1024.8 0.0
18/04:30pm ESE 7 9 - - - - 10 - - 15.2 1024.8 0.0
18/04:00pm SSE 7 9 - - - - 10 - - 15.7 1024.8 0.0
18/03:30pm SSE 8 11 - - - - 10 - - 15.2 1024.8 0.0
18/03:00pm SSE 9 11 - - - - 10 - - 16.3 1024.9 0.0
18/02:30pm SE 7 10 - - - - 10 - - 17.0 1024.9 0.0
18/02:00pm ESE 5 10 - - - - 10 - - 17.2 1025.1 0.0
18/01:30pm NW 7 15 - - - - 10 - - 18.0 1025.4 0.0
18/01:00pm WSW 4 6 - - - - 10 - - 17.4 1025.8 0.0
18/12:30pm NNW 5 10 - - - - 10 - - 16.9 1026.2 0.0
18/12:00pm N 5 8 - - - - 10 - - 16.1 1026.7 0.0
18/11:30am N 6 10 - - - - 10 - - 15.3 1027.4 0.0
18/11:00am WNW 6 10 - - - - 10 - - 14.4 1027.9 0.0
18/10:30am NNE 4 6 - - - - 10 - - 14.2 1028.1 0.0
18/10:00am NNE 5 7 - - - - 10 - - 12.5 1028.5 0.0
18/09:30am W 4 7 - - - - 10 - - 11.4 1028.7 0.0
18/09:00am W 4 6 - - - - 10 - - 10.3 1028.6 0.0
18/08:30am W 4 5 - - - - 10 - - 9.0 1028.7 0.0
18/08:00am W 5 6 - - - - 10 - - 7.0 1028.7 0.0
18/07:30am W 4 5 - - - - 10 - - 5.2 1028.6 0.0
18/07:00am W 5 6 - - - - 10 - - 3.8 1028.4 0.0
18/06:30am W 5 6 - - - - 10 - - 3.2 1028.2 0.0
18/06:00am W 5 6 - - - - 10 - - 2.7 1028.1 0.0
18/05:30am W 1 4 - - - - 10 - - 2.6 1027.9 0.0
18/05:00am W 6 7 - - - - 10 - - 2.6 1027.9 0.0
18/04:30am W 4 4 - - - - 10 - - 3.1 1027.8 0.0
18/04:00am W 5 6 - - - - 10 - - 3.3 1027.8 0.0
18/03:30am W 4 5 - - - - 10 - - 3.4 1027.9 0.0
18/03:00am W 5 6 - - - - 10 - - 3.6 1028.1 0.0
18/02:30am W 4 4 - - - - 10 - - 4.3 1028.3 0.0
18/02:00am W 5 6 - - - - 10 - - 3.9 1028.5 0.0
18/01:30am W 6 6 - - - - 10 - - 4.4 1028.9 0.0
18/01:00am W 6 7 - - - - 10 Partly cloudy - 4.7 1029.0 0.0
18/12:30am W 6 7 - - - - 10 Partly cloudy - 4.8 1029.1 0.0
18/12:00am W 6 7 - - - - 10 Mostly clear - 5.0 1029.3 0.0
 
Date/Time
EST
Wind Sea
Height
m
Swell Vis
km
Cloud Weather Temp
°C
Press
hPa
Rain since
9am
mm
Dir  Spd
kts
Gust
kts
Height
m
Period
s
Dir
17/11:30pm SW 6 7 - - - - 10 - - 5.3 1029.5 0.0
17/11:00pm SSW 5 6 - - - - 10 Partly cloudy - 6.2 1029.7 0.0
17/10:30pm S 4 5 - - - - 10 Partly cloudy - 8.4 1029.7 0.0
17/10:00pm SSE 6 9 - - - - 10 Partly cloudy - 8.7 1029.6 0.0
17/09:30pm SSE 6 9 - - - - 10 - - 8.6 1029.6 0.0
17/09:00pm SSE 7 10 - - - - 10 - - 8.8 1029.5 0.0
17/08:30pm SSE 7 10 - - - - 10 - - 9.0 1029.4 0.0
17/08:00pm SSE 8 11 - - - - 10 - - 9.2 1029.2 0.0
17/07:30pm SSE 7 10 - - - - 10 - - 9.3 1028.9 0.0
17/07:00pm SSE 7 11 - - - - 10 - - 9.5 1028.6 0.0
17/06:30pm SSE 7 11 - - - - 10 - - 9.8 1028.3 0.0
17/06:00pm SSE 10 15 - - - - 10 - - 10.4 1028.1 0.0
17/05:30pm S 12 16 - - - - 10 - - 10.9 1027.9 0.0
17/05:00pm S 13 16 - - - - 10 - - 11.4 1027.7 0.0
17/04:30pm S 13 17 - - - - 10 - - 11.8 1027.5 0.0
17/04:00pm S 13 17 - - - - 10 - - 12.0 1027.3 0.0
17/03:30pm S 11 16 - - - - 10 - - 12.5 1027.2 0.0
17/03:00pm S 11 15 - - - - 10 - - 12.4 1027.3 0.0
17/02:30pm SSE 11 15 - - - - 10 - - 12.3 1027.6 0.0
17/02:00pm S 11 17 - - - - 10 - - 12.3 1027.8 0.0
17/01:30pm S 12 18 - - - - 10 - - 12.5 1028.0 0.0
17/01:00pm SSE 9 15 - - - - 10 - - 12.3 1028.2 0.0
17/12:30pm SE 9 14 - - - - 10 - - 11.9 1028.5 0.0
17/12:00pm S 10 15 - - - - 10 - - 11.8 1028.7 0.0
17/11:30am SSE 10 15 - - - - 10 Partly cloudy - 11.8 1028.8 0.0
17/11:00am SSE 11 15 - - - - 10 - - 11.2 1029.0 0.0
17/10:30am SE 9 15 - - - - 10 - - 11.1 1029.0 0.0
17/10:00am SE 10 13 - - - - 10 - - 10.7 1028.8 0.0
17/09:30am ESE 10 15 - - - - 10 - - 10.6 1028.9 0.0
17/09:00am SE 11 16 - - - - 10 - - 10.0 1028.6 0.0
17/08:30am SE 10 13 - - - - 10 - - 9.9 1028.6 0.0
17/08:00am SE 8 11 - - - - 10 - - 9.5 1028.3 0.0
17/07:30am ESE 4 5 - - - - 10 - - 8.7 1027.9 0.0

Other formats

Comma delimited format used in spreadsheet applications
http://www.bom.gov.au/fwo/IDV60701/IDV60701.94865.axf

JavaScript Object Notation format (JSON) in row-major order
http://www.bom.gov.au/fwo/IDV60701/IDV60701.94865.json

Data quality

Most of these data are generated automatically and are frequently updated. Quality checks on data are not normally performed. It is possible for incorrect values to appear. Refer to information at About Latest Weather Observations and please check the disclaimer before using these data.